Amazonia, Missouri
Current Conditions -  °F | °C
As of 1:53 PM on Saturday 25 Oct 2014 (Local Time) from KSTJ Reporting Station
Clear Clear  
Wind Chill: 77°   Ceiling: Unl
Heat Index: 78°   Visibility: 10mi
Dew Point: 50°   Wind: 3mph
Humidity: 39%   Direction: NA
Pressure: 30.05"   Gusts: NA
Location:  39.89°N, 94.89°W
Report Text: KSTJ 251853Z VRB03KT 10SM CLR 25/10 A3005 RMK AO2 SLP173 T02500100
Loading
Personal Weather Stations






























Interactive Weather Map
Tropical Storm Tracking
New forecast layout! Learn more

10-Day Weather Forecast

Advertisements
Track Severe Weather on mobile